Terminal Aerodrome Forecast
Issued by NWS Twin Cities, MN

Home | Current Version | Previous Version | Graphics & Text | Print | Product List | Glossary On
Versions: 1 2 3 4 5 6 7 8 9 10 11 12 13 14 15 16
000
FTUS43 KMPX 280910 AAA
TAFSTC
TAF AMD
KSTC 280910Z 2809/2906 14010KT P6SM VCSH SCT015 BKN060
     FM281000 14011KT P6SM -TSRA OVC045CB
      TEMPO 2810/2813 2SM TSRA OVC015CB
     FM281400 15013G20KT 4SM -SHRA BR OVC015
     FM281600 17015G22KT P6SM VCSH SCT020 OVC035
     FM282300 25016G23KT P6SM BKN040=

USA.gov is the U.S. government's official web portal to all federal, state and local government web resources and services.